Time;durP1;ratioP1;P1;durP2;ratioP2;P2;SDS_P1;SDS_P2;PMS_P1;PMS_P2;Temp;Humidity;BMP_temperature;BMP_pressure;BME280_temperature;BME280_humidity;BME280_pressure;Samples;Min_cycle;Max_cycle;Signal;HPM_P1;HPM_P2
2022/04/10 07:58:51;;;;;;;10.35;6.75;;;;;;;6.08;73.15;101972.25;5332106;27;20426;-72
2022/04/10 08:01:23;;;;;;;11.27;6.28;;;;;;;6.14;73.03;101983.41;5327444;27;20036;-73
2022/04/10 08:03:54;;;;;;;9.13;6.18;;;;;;;6.27;73.21;101983.22;5336544;28;20479;-76
2022/04/10 08:06:25;;;;;;;6.30;4.93;;;;;;;6.32;70.50;101991.63;5336810;28;20047;-76
2022/04/10 08:08:57;;;;;;;7.65;4.93;;;;;;;6.42;70.20;101999.34;5332467;28;20114;-76
2022/04/10 08:11:28;;;;;;;8.00;4.25;;;;;;;6.41;69.12;101992.13;5327198;28;20071;-75
2022/04/10 08:13:59;;;;;;;11.02;4.97;;;;;;;6.52;69.95;101996.88;5338821;28;20028;-76
2022/04/10 08:16:33;;;;;;;9.65;5.85;;;;;;;6.70;69.58;102001.47;5320083;28;20381;-78
2022/04/10 08:19:05;;;;;;;8.50;4.63;;;;;;;6.73;68.45;102006.50;5330558;27;20019;-75
2022/04/10 08:21:36;;;;;;;9.20;4.50;;;;;;;6.78;67.40;102003.06;5318076;28;20031;-75
2022/04/10 08:24:11;;;;;;;7.88;4.05;;;;;;;6.84;66.10;102000.19;5332547;28;20545;-76
2022/04/10 08:26:43;;;;;;;10.30;4.95;;;;;;;6.84;65.85;102002.09;5329246;28;20035;-72
2022/04/10 08:29:14;;;;;;;9.23;4.30;;;;;;;6.87;65.98;101994.19;5321255;28;20039;-72
2022/04/10 08:31:45;;;;;;;5.93;3.67;;;;;;;6.98;64.38;101995.31;5326140;28;20414;-73
2022/04/10 08:34:17;;;;;;;9.65;3.33;;;;;;;7.08;62.39;102002.97;5313289;28;20024;-73
2022/04/10 08:36:49;;;;;;;11.70;3.90;;;;;;;7.18;63.26;101997.69;5320218;28;20063;-73
2022/04/10 08:39:20;;;;;;;6.57;3.47;;;;;;;7.42;63.03;101997.72;5320438;28;20035;-73
2022/04/10 08:41:54;;;;;;;7.68;3.85;;;;;;;7.46;62.32;102004.44;5338048;28;20015;-73
2022/04/10 08:44:27;;;;;;;6.07;3.20;;;;;;;7.33;60.80;102006.34;5341140;27;20067;-73
2022/04/10 08:47:00;;;;;;;5.60;2.90;;;;;;;7.32;61.07;102001.09;5330264;27;20455;-73
2022/04/10 08:49:33;;;;;;;6.38;2.88;;;;;;;7.30;59.84;102006.81;5312498;28;20028;-72
2022/04/10 08:52:05;;;;;;;5.68;2.75;;;;;;;7.36;61.12;102013.31;5325530;28;20027;-72
2022/04/10 08:54:37;;;;;;;4.70;2.50;;;;;;;7.32;59.40;102018.47;5324764;27;20028;-70
2022/04/10 08:57:08;;;;;;;6.40;2.90;;;;;;;7.35;57.75;102014.41;5339195;27;20443;-75
2022/04/10 08:59:40;;;;;;;6.68;2.75;;;;;;;7.42;59.00;102031.69;5342083;27;20054;-75
2022/04/10 09:02:12;;;;;;;6.65;3.20;;;;;;;7.38;63.87;102028.53;5347999;27;20031;-76
2022/04/10 09:04:44;;;;;;;11.70;4.65;;;;;;;7.36;64.64;102014.16;5330972;27;20031;-75
2022/04/10 09:07:15;;;;;;;7.78;3.67;;;;;;;7.32;64.57;102026.75;5327680;28;20040;-75
2022/04/10 09:09:56;;;;;;;7.82;4.15;;;;;;;7.47;64.48;102028.22;5326616;27;20459;-75
2022/04/10 09:12:27;;;;;;;12.38;5.85;;;;;;;7.53;64.19;102035.50;5338486;27;20023;-74
2022/04/10 09:15:03;;;;;;;8.32;3.60;;;;;;;7.50;64.81;102033.25;5337048;27;20031;-75
2022/04/10 09:17:35;;;;;;;11.20;3.63;;;;;;;7.50;65.15;102033.25;5328417;27;20297;-75
2022/04/10 09:20:06;;;;;;;8.25;3.90;;;;;;;7.62;64.86;102034.91;5342458;27;20106;-74
2022/04/10 09:22:38;;;;;;;9.15;4.00;;;;;;;7.77;64.86;102028.03;5326106;27;20028;-71
2022/04/10 09:25:13;;;;;;;8.32;3.58;;;;;;;7.67;63.17;102036.09;5327953;27;20027;-76
2022/04/10 09:27:47;;;;;;;7.55;3.17;;;;;;;7.70;62.07;102033.72;5332714;27;20031;-76
2022/04/10 09:30:20;;;;;;;7.03;3.13;;;;;;;7.79;61.83;102035.00;5333088;27;20053;-76
2022/04/10 09:32:55;;;;;;;8.88;3.10;;;;;;;7.97;61.71;102033.19;5336497;27;20023;-73
2022/04/10 09:35:27;;;;;;;6.03;3.13;;;;;;;8.13;60.50;102031.56;5326825;27;20114;-76
2022/04/10 09:37:59;;;;;;;4.63;3.13;;;;;;;8.15;59.67;102019.19;5332364;27;20054;-76
2022/04/10 09:40:35;;;;;;;6.72;4.72;;;;;;;8.33;59.74;102023.69;5332085;27;20024;-78
2022/04/10 09:43:09;;;;;;;8.85;3.00;;;;;;;8.23;58.08;102024.34;5339213;27;20019;-72
2022/04/10 09:45:43;;;;;;;4.03;2.88;;;;;;;8.43;57.08;102015.63;5331010;27;20039;-73
2022/04/10 09:48:29;;;;;;;6.68;2.80;;;;;;;8.39;56.69;102021.91;5342412;27;20041;-74
2022/04/10 09:51:03;;;;;;;7.20;2.40;;;;;;;8.21;56.25;102022.94;5326397;28;20114;-75
2022/04/10 09:53:34;;;;;;;9.27;3.08;;;;;;;8.23;55.92;102023.50;5330502;27;20019;-75
2022/04/10 09:56:07;;;;;;;5.53;2.35;;;;;;;8.21;55.19;102017.41;5332294;27;20029;-74
2022/04/10 09:58:42;;;;;;;5.80;2.67;;;;;;;8.32;54.60;102022.03;5325390;27;20047;-73
2022/04/10 10:01:14;;;;;;;13.55;7.13;;;;;;;8.46;54.09;102014.31;5339501;27;20441;-75
2022/04/10 10:03:46;;;;;;;5.20;2.58;;;;;;;8.57;50.66;102021.72;5383282;22;20128;-76
2022/04/10 10:06:19;;;;;;;6.07;2.38;;;;;;;8.70;50.45;102021.41;5269321;28;20162;-74
2022/04/10 10:08:51;;;;;;;6.25;2.38;;;;;;;8.77;51.16;102015.75;5267775;28;20028;-74
2022/04/10 10:11:22;;;;;;;5.70;2.10;;;;;;;8.68;48.80;102023.59;5261518;28;20033;-74
2022/04/10 10:13:54;;;;;;;7.03;2.15;;;;;;;8.83;49.09;102019.44;5273566;28;20569;-74
2022/04/10 10:16:25;;;;;;;4.22;2.10;;;;;;;8.88;50.04;102022.28;5281593;28;20025;-74
2022/04/10 10:18:59;;;;;;;4.82;2.50;;;;;;;8.90;50.69;102009.03;5273219;28;20400;-73
2022/04/10 10:21:30;;;;;;;4.60;2.40;;;;;;;9.04;50.55;101999.31;5277554;28;20497;-73
2022/04/10 10:24:09;;;;;;;5.65;2.40;;;;;;;9.13;50.89;102008.88;5259003;28;20017;-72
2022/04/10 10:27:03;;;;;;;4.82;2.50;;;;;;;9.26;50.79;102009.63;5274801;28;20040;-73
2022/04/10 10:30:07;;;;;;;7.47;2.95;;;;;;;9.36;51.08;102012.56;5266540;28;20029;-73
2022/04/10 10:32:41;;;;;;;5.28;2.20;;;;;;;9.34;50.23;102006.44;5266856;28;20037;-73
2022/04/10 10:35:28;;;;;;;4.45;2.30;;;;;;;9.23;49.52;102001.81;5267746;28;20016;-73
2022/04/10 10:38:00;;;;;;;4.65;2.20;;;;;;;9.18;48.79;102004.50;5279011;28;20094;-73
2022/04/10 10:40:31;;;;;;;7.28;2.85;;;;;;;9.04;48.73;102002.06;5259564;28;20025;-73
2022/04/10 10:43:04;;;;;;;4.50;2.38;;;;;;;9.12;49.16;102001.66;5270832;28;20013;-74
2022/04/10 10:45:43;;;;;;;4.82;2.20;;;;;;;9.19;49.74;102000.66;5278401;28;20036;-74
2022/04/10 10:48:29;;;;;;;4.82;2.17;;;;;;;9.35;49.38;102005.34;5268210;28;20031;-74
2022/04/10 10:51:09;;;;;;;5.30;2.40;;;;;;;9.68;49.14;101998.91;5270752;28;20028;-75
2022/04/10 10:53:44;;;;;;;4.40;2.58;;;;;;;9.71;48.59;102005.88;5279483;28;20452;-74
2022/04/10 10:56:19;;;;;;;5.68;3.10;;;;;;;9.62;48.43;101996.34;5268567;28;20095;-74
2022/04/10 10:58:51;;;;;;;6.78;2.90;;;;;;;9.58;48.90;101999.59;5272538;28;20380;-74
2022/04/10 11:01:25;;;;;;;3.97;2.40;;;;;;;9.78;49.01;102009.28;5277134;28;20032;-71
2022/04/10 11:04:09;;;;;;;6.57;3.58;;;;;;;9.85;46.67;102001.63;5262682;28;20109;-71
2022/04/10 11:06:47;;;;;;;13.57;7.22;;;;;;;9.83;48.09;101998.28;5271271;28;20024;-71
2022/04/10 11:09:23;;;;;;;6.55;2.50;;;;;;;9.72;46.92;101996.47;5280223;28;20028;-70
2022/04/10 11:11:56;;;;;;;6.30;3.30;;;;;;;10.01;47.35;101992.41;5258376;28;20037;-71
2022/04/10 11:14:39;;;;;;;6.22;2.58;;;;;;;9.86;47.58;101997.75;5275757;28;20490;-73
2022/04/10 11:17:20;;;;;;;6.78;3.28;;;;;;;10.09;47.76;101995.84;5275358;28;20032;-71
2022/04/10 11:20:05;;;;;;;3.72;2.17;;;;;;;10.05;48.16;101997.44;5265546;28;20124;-71
2022/04/10 11:22:45;;;;;;;11.43;3.33;;;;;;;10.05;47.71;101991.88;5273127;28;20103;-70
2022/04/10 11:25:19;;;;;;;7.50;2.97;;;;;;;10.02;48.19;101993.25;5275111;28;20029;-70
2022/04/10 11:27:58;;;;;;;5.53;2.70;;;;;;;9.99;48.32;101994.59;5265971;28;20115;-71
2022/04/10 11:30:38;;;;;;;5.53;3.05;;;;;;;10.01;47.05;101989.63;5275136;28;20029;-70
2022/04/10 11:33:11;;;;;;;31.17;24.23;;;;;;;9.85;47.15;101998.88;5273962;28;20027;-70
2022/04/10 11:35:53;;;;;;;7.53;2.65;;;;;;;9.78;47.51;101989.91;5266268;28;20522;-69
2022/04/10 11:38:27;;;;;;;3.67;2.25;;;;;;;9.67;47.42;101990.88;5275500;28;20040;-70
2022/04/10 11:40:59;;;;;;;10.68;4.45;;;;;;;9.67;47.23;101988.09;5272420;28;20521;-70
2022/04/10 11:43:30;;;;;;;14.63;8.63;;;;;;;9.83;46.60;101984.44;5266676;28;20037;-71
2022/04/10 11:46:02;;;;;;;7.07;3.20;;;;;;;9.79;45.66;101977.72;5277486;28;20063;-69
2022/04/10 11:48:39;;;;;;;7.93;3.60;;;;;;;9.92;46.47;101988.44;5269959;28;20029;-70
2022/04/10 11:51:10;;;;;;;4.72;2.85;;;;;;;9.93;46.96;101984.56;5268880;28;20138;-72
2022/04/10 11:53:41;;;;;;;6.35;2.67;;;;;;;9.94;47.71;101979.84;5277735;28;20107;-70
2022/04/10 11:56:13;;;;;;;5.57;2.55;;;;;;;9.73;48.10;101975.97;5266512;28;20030;-71
2022/04/10 11:58:45;;;;;;;5.05;2.80;;;;;;;9.96;47.32;101981.25;5273095;28;20040;-70
2022/04/10 12:01:19;;;;;;;4.47;2.35;;;;;;;10.05;46.56;101981.66;5274612;28;20032;-70
2022/04/10 12:03:50;;;;;;;5.80;2.67;;;;;;;10.23;46.06;101972.19;5264716;28;20488;-69
2022/04/10 12:06:21;;;;;;;6.38;2.58;;;;;;;10.59;45.53;101965.09;5275803;28;20036;-70
2022/04/10 12:08:55;;;;;;;5.57;2.85;;;;;;;10.64;45.20;101969.84;5271673;28;20059;-71
2022/04/10 12:11:37;;;;;;;4.68;2.80;;;;;;;10.81;45.41;101970.56;5265030;28;20031;-70
2022/04/10 12:14:22;;;;;;;5.20;2.42;;;;;;;10.98;45.43;101967.66;5261467;28;20021;-74
2022/04/10 12:16:54;;;;;;;4.57;2.33;;;;;;;10.95;43.51;101965.41;5272247;28;20466;-73
2022/04/10 12:19:30;;;;;;;7.22;3.53;;;;;;;10.81;42.67;101967.81;5267197;28;20033;-70
2022/04/10 12:22:09;;;;;;;3.83;2.42;;;;;;;10.69;43.34;101964.34;5276913;28;20024;-70
2022/04/10 12:24:45;;;;;;;7.93;3.08;;;;;;;10.43;43.52;101958.56;5261526;28;20025;-70
2022/04/10 12:27:17;;;;;;;15.50;9.98;;;;;;;10.51;43.24;101953.66;5275506;28;20036;-71
2022/04/10 12:29:49;;;;;;;4.38;2.95;;;;;;;10.55;43.29;101954.78;5263539;28;20427;-70
2022/04/10 12:32:21;;;;;;;4.13;2.65;;;;;;;10.54;42.14;101955.88;5270221;28;20117;-70
2022/04/10 12:34:53;;;;;;;8.18;3.33;;;;;;;10.77;41.05;101954.72;5266294;28;20021;-70
2022/04/10 12:37:26;;;;;;;4.63;2.47;;;;;;;10.78;41.57;101957.22;5270074;28;20028;-70
2022/04/10 12:39:58;;;;;;;3.72;2.53;;;;;;;10.98;41.79;101950.16;5265088;28;20024;-73
2022/04/10 12:42:41;;;;;;;3.88;2.33;;;;;;;11.17;40.74;101953.34;5273932;28;20683;-72
2022/04/10 12:45:12;;;;;;;6.88;2.25;;;;;;;11.18;38.19;101955.03;5278605;28;20024;-75
2022/04/10 12:47:47;;;;;;;14.73;10.90;;;;;;;11.23;39.38;101953.13;5267614;28;20119;-74
2022/04/10 12:50:19;;;;;;;3.47;2.13;;;;;;;11.29;39.61;101956.78;5278990;28;20021;-73
2022/04/10 12:52:55;;;;;;;4.13;2.35;;;;;;;11.46;36.48;101951.88;5275533;28;20028;-72
2022/04/10 12:55:36;;;;;;;8.88;7.25;;;;;;;11.85;37.44;101953.47;5269443;28;20087;-74
2022/04/10 12:58:07;;;;;;;4.43;2.90;;;;;;;11.92;37.29;101948.53;5268561;28;20051;-74
2022/04/10 13:00:46;;;;;;;5.25;2.50;;;;;;;12.17;37.92;101940.28;5276721;28;20028;-74
2022/04/10 13:03:29;;;;;;;4.43;2.25;;;;;;;12.13;35.89;101941.91;5266959;28;20508;-74
2022/04/10 13:06:06;;;;;;;6.15;4.78;;;;;;;12.47;35.98;101938.66;5280739;28;20049;-73
2022/04/10 13:08:39;;;;;;;4.50;3.40;;;;;;;12.50;35.45;101938.13;5273184;28;20031;-73
2022/04/10 13:11:11;;;;;;;19.50;13.65;;;;;;;12.37;35.22;101939.50;5271825;28;20052;-73
2022/04/10 13:14:00;;;;;;;5.82;2.70;;;;;;;12.56;36.05;101942.56;5279114;28;20095;-72
2022/04/10 13:16:37;;;;;;;5.50;2.72;;;;;;;12.60;35.96;101940.06;5277706;28;20025;-73
2022/04/10 13:19:14;;;;;;;3.13;2.05;;;;;;;12.38;37.28;101932.81;5276754;28;20190;-72
2022/04/10 13:21:51;;;;;;;3.95;2.40;;;;;;;12.43;37.77;101926.44;5268184;28;20453;-73
2022/04/10 13:24:23;;;;;;;4.10;2.38;;;;;;;12.30;36.22;101926.97;5278254;28;20017;-72
2022/04/10 13:26:55;;;;;;;5.38;2.35;;;;;;;12.29;35.65;101930.84;5275702;28;20033;-72
2022/04/10 13:29:26;;;;;;;8.00;2.45;;;;;;;11.97;36.31;101926.31;5268795;28;20066;-73
2022/04/10 13:32:01;;;;;;;3.05;2.38;;;;;;;12.00;36.41;101917.41;5265821;28;20032;-72
2022/04/10 13:34:34;;;;;;;5.38;2.70;;;;;;;11.78;36.93;101914.81;5262566;28;20017;-72
2022/04/10 13:37:06;;;;;;;3.45;2.30;;;;;;;11.71;37.36;101920.63;5270913;28;20072;-73
2022/04/10 13:39:37;;;;;;;4.88;2.63;;;;;;;11.51;37.08;101918.59;5266122;28;20045;-73
2022/04/10 13:42:09;;;;;;;23.50;19.73;;;;;;;11.75;37.12;101910.63;5280344;28;20044;-72
2022/04/10 13:44:40;;;;;;;6.65;2.70;;;;;;;11.80;37.25;101911.75;5273375;28;20036;-74
2022/04/10 13:47:12;;;;;;;5.35;2.63;;;;;;;11.72;37.50;101913.94;5270766;28;20092;-75
2022/04/10 13:49:43;;;;;;;3.60;2.50;;;;;;;11.71;37.57;101914.25;5280799;28;20107;-74
2022/04/10 13:52:15;;;;;;;5.65;2.40;;;;;;;11.66;36.27;101908.66;5255759;28;20066;-75
2022/04/10 13:54:47;;;;;;;4.72;3.88;;;;;;;11.81;37.07;101905.94;5263152;28;20464;-74
2022/04/10 13:57:19;;;;;;;4.72;2.65;;;;;;;12.25;37.28;101902.75;5275798;28;20028;-74
2022/04/10 13:59:50;;;;;;;5.85;2.60;;;;;;;12.49;36.11;101908.63;5279486;28;20024;-76
2022/04/10 14:02:22;;;;;;;4.63;2.60;;;;;;;12.17;35.64;101915.25;5269810;28;20436;-73
2022/04/10 14:04:53;;;;;;;4.60;2.50;;;;;;;12.65;35.20;101903.06;5274253;28;20371;-75
2022/04/10 14:07:25;;;;;;;5.43;2.58;;;;;;;12.59;35.46;101900.28;5277818;28;20016;-76
2022/04/10 14:09:56;;;;;;;3.67;2.65;;;;;;;12.76;35.41;101899.19;5264608;28;20024;-74
2022/04/10 14:12:28;;;;;;;4.90;2.28;;;;;;;12.78;35.42;101899.72;5273590;28;20036;-75
2022/04/10 14:15:00;;;;;;;4.35;2.72;;;;;;;12.87;34.92;101897.22;5272179;28;20021;-75
2022/04/10 14:17:32;;;;;;;5.82;3.58;;;;;;;12.61;33.89;101902.78;5279612;28;20031;-74
2022/04/10 14:20:03;;;;;;;4.32;2.90;;;;;;;12.45;33.63;101895.53;5267872;28;20028;-75
2022/04/10 14:22:35;;;;;;;2.92;2.30;;;;;;;12.60;34.50;101893.63;5274254;28;20080;-75
2022/04/10 14:25:06;;;;;;;5.63;2.25;;;;;;;12.82;33.23;101887.75;5265620;28;20021;-75
2022/04/10 14:27:38;;;;;;;3.95;2.63;;;;;;;13.23;33.32;101887.69;5279724;28;20027;-74
2022/04/10 14:30:10;;;;;;;3.47;2.22;;;;;;;13.21;32.90;101886.28;5263844;28;20147;-74
2022/04/10 14:32:41;;;;;;;4.15;1.95;;;;;;;13.48;32.06;101885.97;5275092;28;20025;-73
2022/04/10 14:35:13;;;;;;;3.10;2.08;;;;;;;13.54;31.99;101887.63;5276543;28;20475;-75
2022/04/10 14:37:44;;;;;;;4.05;2.00;;;;;;;13.78;31.35;101886.94;5267497;28;20389;-74
2022/04/10 14:40:16;;;;;;;4.07;1.88;;;;;;;13.68;30.09;101887.84;5278698;28;20471;-73
2022/04/10 14:42:48;;;;;;;3.92;2.10;;;;;;;13.36;30.33;101889.06;5272390;28;20019;-73
2022/04/10 14:45:19;;;;;;;2.92;1.98;;;;;;;13.18;30.97;101878.50;5269222;28;20169;-73
2022/04/10 14:47:53;;;;;;;3.58;2.15;;;;;;;12.88;32.74;101880.22;5279706;28;20108;-73
2022/04/10 14:50:24;;;;;;;3.53;2.53;;;;;;;13.16;32.78;101875.16;5269822;28;20024;-73
2022/04/10 14:52:56;;;;;;;3.15;2.20;;;;;;;13.43;33.34;101884.03;5272324;28;20025;-76
2022/04/10 14:55:28;;;;;;;4.03;2.50;;;;;;;13.23;33.00;101875.72;5278937;28;20025;-74
2022/04/10 14:57:59;;;;;;;3.17;2.22;;;;;;;13.35;32.81;101876.28;5266507;28;20028;-75
2022/04/10 15:00:34;;;;;;;4.15;2.58;;;;;;;13.50;33.47;101875.38;5275978;28;20040;-74
2022/04/10 15:03:06;;;;;;;3.58;2.65;;;;;;;13.55;33.58;101863.38;5261439;28;20151;-75
2022/04/10 15:05:38;;;;;;;3.72;2.50;;;;;;;13.45;32.74;101867.88;5262987;28;20499;-75
2022/04/10 15:08:12;;;;;;;4.15;1.90;;;;;;;13.50;32.65;101872.59;5331268;23;20016;-75
2022/04/10 15:10:46;;;;;;;4.25;2.35;;;;;;;13.35;32.96;101875.44;5309828;28;20076;-74
2022/04/10 15:13:17;;;;;;;4.55;2.83;;;;;;;13.22;32.48;101865.69;5317524;28;20532;-75
2022/04/10 15:15:48;;;;;;;3.67;2.42;;;;;;;13.40;33.03;101872.63;5309078;28;20052;-75
2022/04/10 15:18:22;;;;;;;4.88;3.70;;;;;;;13.44;32.99;101871.75;5315194;28;20020;-75
2022/04/10 15:20:53;;;;;;;4.18;2.58;;;;;;;13.36;32.34;101864.00;5313117;28;20493;-75
2022/04/10 15:23:25;;;;;;;4.25;2.95;;;;;;;13.34;33.45;101857.03;5311626;28;20103;-75
2022/04/10 15:25:58;;;;;;;5.45;3.00;;;;;;;13.13;33.65;101862.63;5310149;28;20077;-75
2022/04/10 15:28:29;;;;;;;4.63;2.42;;;;;;;12.94;32.65;101859.63;5313316;28;20164;-74
2022/04/10 15:31:04;;;;;;;4.03;3.05;;;;;;;13.09;33.31;101860.69;5312473;28;20098;-75
2022/04/10 15:33:36;;;;;;;5.43;2.55;;;;;;;13.13;33.60;101859.84;5380309;22;20105;-74
2022/04/10 15:36:08;;;;;;;11.35;10.15;;;;;;;13.15;34.25;101859.56;5282497;28;20036;-76
2022/04/10 15:38:41;;;;;;;4.75;3.38;;;;;;;13.12;33.94;101855.41;5272050;28;20051;-76
2022/04/10 15:41:18;;;;;;;6.47;4.45;;;;;;;13.07;34.05;101862.94;5283294;28;20086;-74
2022/04/10 15:43:52;;;;;;;5.10;2.80;;;;;;;12.82;34.00;101857.13;5282695;28;20078;-75
2022/04/10 15:46:23;;;;;;;30.33;19.45;;;;;;;12.93;33.87;101846.81;5282050;28;20016;-76
2022/04/10 15:48:56;;;;;;;5.80;3.17;;;;;;;12.86;34.51;101840.72;5271811;28;20376;-75
2022/04/10 15:51:27;;;;;;;4.72;3.17;;;;;;;12.81;34.30;101843.50;5277442;28;20029;-75
2022/04/10 15:56:33;;;;;;;4.30;2.58;;;;;;;12.59;34.00;101839.06;5279171;28;20044;-75
2022/04/10 15:59:04;;;;;;;5.55;3.03;;;;;;;12.69;35.01;101834.59;5282193;28;20016;-75
2022/04/10 16:01:35;;;;;;;6.80;3.65;;;;;;;12.71;34.30;101833.22;5265252;28;20029;-75
2022/04/10 16:04:10;;;;;;;6.18;3.40;;;;;;;12.56;34.79;101831.28;5271189;28;20025;-76
2022/04/10 16:06:42;;;;;;;7.15;2.90;;;;;;;12.49;34.63;101835.44;5273272;28;20418;-75
2022/04/10 16:11:48;;;;;;;6.60;3.35;;;;;;;12.52;34.70;101835.72;5428791;22;20509;-75
2022/04/10 16:14:19;;;;;;;6.20;3.63;;;;;;;12.62;34.36;101835.72;5272808;28;20023;-74
2022/04/10 16:16:53;;;;;;;5.38;4.32;;;;;;;12.78;34.22;101832.91;5282619;28;20032;-75
2022/04/10 16:19:24;;;;;;;4.40;3.05;;;;;;;12.73;34.10;101831.00;5283880;28;20033;-76
2022/04/10 16:21:57;;;;;;;3.65;2.58;;;;;;;12.64;34.04;101831.81;5284422;28;20029;-75
2022/04/10 16:24:28;;;;;;;3.63;2.50;;;;;;;12.65;34.21;101836.25;5286456;28;20044;-75
2022/04/10 16:30:08;;;;;;;4.50;2.97;;;;;;;12.48;34.34;101834.63;5286082;28;20037;-75
2022/04/10 16:32:44;;;;;;;4.88;2.70;;;;;;;12.42;33.94;101834.88;5284770;28;20082;-75
2022/04/10 16:35:28;;;;;;;4.38;2.95;;;;;;;12.33;34.65;101837.41;5285585;28;20435;-75
2022/04/10 16:38:00;;;;;;;7.50;3.85;;;;;;;12.51;34.46;101833.22;5277995;28;20051;-74
2022/04/10 16:40:34;;;;;;;4.30;2.28;;;;;;;12.51;34.76;101831.28;5286204;28;20021;-75
2022/04/10 16:43:06;;;;;;;5.75;2.90;;;;;;;12.69;34.75;101829.03;5272917;28;20486;-74
2022/04/10 16:45:41;;;;;;;4.38;2.85;;;;;;;12.70;34.45;101833.47;5273413;28;20021;-74
2022/04/10 16:48:13;;;;;;;3.90;3.20;;;;;;;12.81;34.86;101826.81;5280781;28;20025;-75
2022/04/10 16:50:44;;;;;;;4.50;3.60;;;;;;;12.69;34.41;101824.31;5296206;23;20415;-75
2022/04/10 16:53:15;;;;;;;5.72;2.90;;;;;;;12.85;34.00;101830.69;5272084;28;20044;-74
2022/04/10 16:55:47;;;;;;;4.63;2.72;;;;;;;12.73;34.24;101817.06;5280901;28;20036;-74
2022/04/10 16:58:18;;;;;;;4.25;3.25;;;;;;;12.60;34.35;101835.19;5271068;28;20026;-75
2022/04/10 17:00:52;;;;;;;4.05;2.85;;;;;;;12.57;33.90;101832.94;5278069;28;20025;-74
2022/04/10 17:03:23;;;;;;;4.78;3.13;;;;;;;12.55;34.69;101835.19;5284382;28;20388;-74
2022/04/10 17:05:58;;;;;;;11.20;6.93;;;;;;;12.55;35.00;101826.84;5281338;28;20019;-75
2022/04/10 17:08:30;;;;;;;5.83;3.07;;;;;;;12.54;35.21;101827.94;5284933;28;20044;-76
2022/04/10 17:11:01;;;;;;;3.45;3.03;;;;;;;12.50;35.41;101828.75;5283988;28;20273;-74
2022/04/10 17:13:36;;;;;;;6.93;2.88;;;;;;;12.48;35.17;101831.84;5285725;28;20448;-74
2022/04/10 17:16:07;;;;;;;12.75;10.68;;;;;;;12.47;35.54;101835.72;5269358;28;20533;-74
2022/04/10 17:18:38;;;;;;;4.82;3.83;;;;;;;12.38;35.07;101834.63;5283053;28;20119;-75
2022/04/10 17:21:10;;;;;;;5.40;3.00;;;;;;;12.41;34.91;101834.06;5282492;28;20547;-72
2022/04/10 17:23:41;;;;;;;4.82;3.15;;;;;;;12.31;36.02;101839.63;5272786;28;20444;-73
2022/04/10 17:26:13;;;;;;;6.07;3.05;;;;;;;12.18;36.56;101844.59;5280142;28;20021;-72
2022/04/10 17:28:44;;;;;;;5.75;4.10;;;;;;;12.05;36.30;101842.38;5274298;28;20021;-72
